createdAt,value
2019-01-06T00:00:07.439Z,5.00
2019-01-06T00:03:16.076Z,4.60
2019-01-06T00:06:16.217Z,7.28
2019-01-06T00:09:44.485Z,4.58
2019-01-06T00:12:34.406Z,4.45
2019-01-06T00:15:34.156Z,5.03
2019-01-06T00:18:40.959Z,4.95
2019-01-06T00:21:41.159Z,5.08
2019-01-06T00:24:41.420Z,5.78
2019-01-06T00:27:41.674Z,5.00
2019-01-06T00:30:38.526Z,4.75
2019-01-06T00:33:37.082Z,3.85
2019-01-06T00:36:37.399Z,4.42
2019-01-06T00:39:45.240Z,4.33
2019-01-06T00:42:38.009Z,4.47
2019-01-06T00:45:28.321Z,3.95
2019-01-06T00:51:36.255Z,4.45
2019-01-06T00:54:32.014Z,4.15
2019-01-06T00:57:39.264Z,4.47
2019-01-06T01:00:38.910Z,5.00
2019-01-06T01:03:46.353Z,4.35
2019-01-06T01:06:49.191Z,4.55
2019-01-06T01:09:56.135Z,4.17
2019-01-06T01:12:55.895Z,4.28
2019-01-06T01:16:02.746Z,5.03
2019-01-06T01:19:03.102Z,4.83
2019-01-06T01:22:00.883Z,4.33
2019-01-06T01:25:00.755Z,4.30
2019-01-06T01:28:08.099Z,4.42
2019-01-06T01:31:07.649Z,4.28
2019-01-06T01:34:14.744Z,4.12
2019-01-06T01:37:14.390Z,4.47
2019-01-06T01:40:21.337Z,4.80
2019-01-06T01:43:15.457Z,4.35
2019-01-06T01:46:22.447Z,4.40
2019-01-06T01:49:22.463Z,4.25
2019-01-06T01:52:29.593Z,4.53
2019-01-06T01:55:30.217Z,4.55
2019-01-06T01:58:37.052Z,4.33
2019-01-06T02:01:37.407Z,4.33
2019-01-06T02:04:34.599Z,4.37
2019-01-06T02:07:34.725Z,4.35
2019-01-06T02:10:41.676Z,4.22
2019-01-06T02:13:42.319Z,4.05
2019-01-06T02:16:49.611Z,3.90
2019-01-06T02:19:50.761Z,3.80
2019-01-06T02:22:53.923Z,4.17
2019-01-06T02:26:02.930Z,4.20
2019-01-06T02:29:03.459Z,4.15
2019-01-06T02:32:03.103Z,4.42
2019-01-06T02:35:09.950Z,4.45
2019-01-06T02:38:10.543Z,4.65
2019-01-06T02:41:17.491Z,4.83
2019-01-06T02:44:17.692Z,5.20
2019-01-06T02:47:24.527Z,4.55
2019-01-06T02:50:24.253Z,4.97
2019-01-06T02:53:31.116Z,5.03
2019-01-06T02:56:33.797Z,5.35
2019-01-06T02:59:40.726Z,5.72
2019-01-06T03:02:41.128Z,5.80
2019-01-06T03:05:47.087Z,5.72
2019-01-06T03:08:47.631Z,6.30
2019-01-06T03:11:54.535Z,5.97
2019-01-06T03:14:56.922Z,6.92
2019-01-06T03:18:04.146Z,6.87
2019-01-06T03:21:04.419Z,7.40
2019-01-06T03:24:04.599Z,7.25
2019-01-06T03:27:11.638Z,7.72
2019-01-06T03:30:17.502Z,6.87
2019-01-06T03:33:24.733Z,7.55
2019-01-06T03:36:24.345Z,6.87
2019-01-06T03:39:28.209Z,7.50
2019-01-06T03:42:28.651Z,7.17
2019-01-06T03:45:28.824Z,7.10
2019-01-06T03:48:35.973Z,7.67
2019-01-06T03:51:36.310Z,7.65
2019-01-06T03:54:31.367Z,7.25
2019-01-06T03:57:38.279Z,7.03
2019-01-06T04:00:36.432Z,6.80
2019-01-06T04:03:43.651Z,6.78
2019-01-06T04:06:49.433Z,7.33
2019-01-06T04:09:49.912Z,7.17
2019-01-06T04:12:56.853Z,8.00
2019-01-06T04:16:00.173Z,7.15
2019-01-06T04:19:07.415Z,7.90
2019-01-06T04:22:07.413Z,7.60
2019-01-06T04:25:07.272Z,7.70
2019-01-06T04:28:13.993Z,6.92
2019-01-06T04:31:14.509Z,6.78
2019-01-06T04:34:21.440Z,7.47
2019-01-06T04:37:22.167Z,7.45
2019-01-06T04:40:22.222Z,5.78
2019-01-06T04:43:29.148Z,6.37
2019-01-06T04:46:29.026Z,5.65
2019-01-06T04:49:36.071Z,5.35
2019-01-06T04:52:35.310Z,5.20
2019-01-06T04:55:36.822Z,4.90
2019-01-06T04:58:43.629Z,4.87
2019-01-06T05:01:43.661Z,4.65
2019-01-06T05:04:50.626Z,4.17
2019-01-06T05:07:51.081Z,4.22
2019-01-06T05:10:51.050Z,4.40
2019-01-06T05:13:58.239Z,4.70
2019-01-06T05:16:58.927Z,5.20
2019-01-06T05:20:05.674Z,4.45
2019-01-06T05:23:05.407Z,4.62
2019-01-06T05:26:12.202Z,4.35
2019-01-06T05:29:12.044Z,3.87
2019-01-06T05:32:18.891Z,3.55
2019-01-06T05:35:18.615Z,3.45
2019-01-06T05:38:25.764Z,3.35
2019-01-06T05:41:25.923Z,3.60
2019-01-06T05:44:32.791Z,3.42
2019-01-06T05:47:33.350Z,3.33
2019-01-06T05:50:40.260Z,3.17
2019-01-06T05:53:39.975Z,3.17
2019-01-06T05:56:46.956Z,3.22
2019-01-06T05:59:50.005Z,3.60
2019-01-06T06:02:56.924Z,3.00
2019-01-06T06:05:56.966Z,2.80
2019-01-06T06:08:57.580Z,2.67
2019-01-06T06:12:04.771Z,3.20
2019-01-06T06:15:02.827Z,2.80
2019-01-06T06:18:09.664Z,2.65
2019-01-06T06:21:09.304Z,2.87
2019-01-06T06:24:09.533Z,2.98
2019-01-06T06:27:16.724Z,2.85
2019-01-06T06:30:16.799Z,2.55
2019-01-06T06:33:23.632Z,2.50
2019-01-06T06:36:23.511Z,2.72
2019-01-06T06:39:27.551Z,2.90
2019-01-06T06:42:23.390Z,2.77
2019-01-06T06:45:30.330Z,2.50
2019-01-06T06:48:30.995Z,2.80
2019-01-06T06:51:30.684Z,2.77
2019-01-06T06:54:31.118Z,2.98
2019-01-06T06:58:17.047Z,2.35
2019-01-06T07:01:22.258Z,2.65
2019-01-06T07:04:29.220Z,2.65
2019-01-06T07:07:29.582Z,2.40
2019-01-06T07:10:29.799Z,2.58
2019-01-06T07:13:37.715Z,2.60
2019-01-06T07:16:58.904Z,2.40
2019-01-06T07:20:05.997Z,2.40
2019-01-06T07:23:08.512Z,2.30
2019-01-06T07:26:10.242Z,2.30
2019-01-06T07:29:17.358Z,2.27
2019-01-06T07:32:17.534Z,2.15
2019-01-06T07:35:18.031Z,2.30
2019-01-06T07:38:24.789Z,2.15
2019-01-06T07:41:25.296Z,2.40
2019-01-06T07:44:32.263Z,2.60
2019-01-06T07:50:37.916Z,2.33
2019-01-06T07:53:37.460Z,2.98
2019-01-06T07:56:44.335Z,2.77
2019-01-06T07:59:44.135Z,2.70
2019-01-06T08:02:51.048Z,2.60
2019-01-06T08:05:51.659Z,2.40
2019-01-06T08:08:58.627Z,3.00
2019-01-06T08:11:59.125Z,2.70
2019-01-06T08:15:06.071Z,2.27
2019-01-06T08:18:06.519Z,2.62
2019-01-06T08:21:14.496Z,2.75
2019-01-06T08:24:14.512Z,2.80
2019-01-06T08:27:21.711Z,2.30
2019-01-06T08:30:22.287Z,3.08
2019-01-06T08:33:20.537Z,3.20
2019-01-06T08:36:21.264Z,3.15
2019-01-06T08:39:14.445Z,3.58
2019-01-06T08:42:01.818Z,3.10
2019-01-06T08:44:55.024Z,2.70
2019-01-06T08:47:41.312Z,3.70
2019-01-06T08:50:37.588Z,3.00
2019-01-06T08:53:20.061Z,4.37
2019-01-06T08:56:07.410Z,4.00
2019-01-06T08:58:57.324Z,3.50
2019-01-06T09:01:41.148Z,3.62
2019-01-06T09:04:25.396Z,2.50
2019-01-06T09:07:15.746Z,3.47
2019-01-06T09:09:56.666Z,3.65
2019-01-06T09:12:46.889Z,3.17
2019-01-06T09:15:33.322Z,2.65
2019-01-06T09:18:32.650Z,2.27
2019-01-06T09:21:22.628Z,2.67
2019-01-06T09:24:09.173Z,2.45
2019-01-06T09:26:59.969Z,2.83
2019-01-06T09:29:46.456Z,2.77
2019-01-06T09:32:49.044Z,3.05
2019-01-06T09:35:35.276Z,2.87
2019-01-06T09:38:21.631Z,2.47
2019-01-06T09:41:18.265Z,2.62
2019-01-06T09:44:08.630Z,2.80
2019-01-06T09:46:55.036Z,2.70
2019-01-06T09:50:00.600Z,2.60
2019-01-06T09:52:58.909Z,3.35
2019-01-06T09:55:45.246Z,5.28
2019-01-06T09:58:35.380Z,2.40
2019-01-06T10:01:21.463Z,2.35
2019-01-06T10:04:07.404Z,1.80
2019-01-06T10:07:07.381Z,2.37
2019-01-06T10:09:53.701Z,2.62
2019-01-06T10:12:46.927Z,2.20
2019-01-06T10:15:32.937Z,2.33
2019-01-06T10:18:18.972Z,2.47
2019-01-06T10:21:08.894Z,2.27
2019-01-06T10:23:55.317Z,1.90
2019-01-06T10:26:41.696Z,2.00
2019-01-06T10:29:28.026Z,1.52
2019-01-06T10:32:25.527Z,1.72
2019-01-06T10:35:11.575Z,2.20
2019-01-06T10:37:57.481Z,1.60
2019-01-06T10:40:47.816Z,2.90
2019-01-06T10:43:50.624Z,1.80
2019-01-06T10:46:43.428Z,1.10
2019-01-06T10:49:40.009Z,1.45
2019-01-06T10:52:27.641Z,1.05
2019-01-06T10:55:06.096Z,1.17
2019-01-06T10:57:52.051Z,0.90
2019-01-06T11:00:38.065Z,1.30
2019-01-06T11:03:25.773Z,1.57
2019-01-06T11:06:11.950Z,1.00
2019-01-06T11:08:57.890Z,1.32
2019-01-06T11:11:44.001Z,1.25
2019-01-06T11:14:34.181Z,1.10
2019-01-06T11:17:36.273Z,1.10
2019-01-06T11:20:28.147Z,1.20
2019-01-06T11:23:14.433Z,1.10
2019-01-06T11:26:11.280Z,0.75
2019-01-06T11:28:57.413Z,0.90
2019-01-06T11:31:45.465Z,1.10
2019-01-06T11:34:32.722Z,0.90
2019-01-06T11:37:18.804Z,0.90
2019-01-06T11:40:05.125Z,0.90
2019-01-06T11:42:52.172Z,0.90
2019-01-06T11:45:40.111Z,1.02
2019-01-06T11:48:27.311Z,1.72
2019-01-06T11:51:23.688Z,0.80
2019-01-06T11:54:10.870Z,1.00
2019-01-06T11:57:02.094Z,0.70
2019-01-06T11:59:48.763Z,0.80
2019-01-06T12:02:39.012Z,0.70
2019-01-06T12:05:24.389Z,0.60
2019-01-06T12:08:14.151Z,0.80
2019-01-06T12:10:53.347Z,0.80
2019-01-06T12:13:45.183Z,0.75
2019-01-06T12:16:35.050Z,0.60
2019-01-06T12:19:20.648Z,0.60
2019-01-06T12:22:19.093Z,0.90
2019-01-06T12:25:18.742Z,0.75
2019-01-06T12:28:11.973Z,0.65
2019-01-06T12:30:59.542Z,0.60
2019-01-06T12:33:45.754Z,0.75
2019-01-06T12:36:31.631Z,0.75
2019-01-06T12:39:31.181Z,0.78
2019-01-06T12:42:21.451Z,0.68
2019-01-06T12:45:17.334Z,0.80
2019-01-06T12:48:13.614Z,1.10
2019-01-06T12:50:54.520Z,1.10
2019-01-06T12:53:53.047Z,1.07
2019-01-06T12:56:38.590Z,1.25
2019-01-06T12:59:28.996Z,1.00
2019-01-06T13:02:19.490Z,1.05
2019-01-06T13:05:05.575Z,0.90
2019-01-06T13:07:51.707Z,1.00
2019-01-06T13:10:36.033Z,1.05
2019-01-06T13:13:18.700Z,0.95
2019-01-06T13:16:11.780Z,1.02
2019-01-06T13:19:00.318Z,1.20
2019-01-06T13:22:00.163Z,1.10
2019-01-06T13:24:46.029Z,1.05
2019-01-06T13:27:39.008Z,1.20
2019-01-06T13:30:27.258Z,1.30
2019-01-06T13:33:20.780Z,1.40
2019-01-06T13:36:06.243Z,1.27
2019-01-06T13:38:47.343Z,1.72
2019-01-06T13:41:33.273Z,0.98
2019-01-06T13:44:19.504Z,1.25
2019-01-06T13:47:16.391Z,1.40
2019-01-06T13:50:05.058Z,1.15
2019-01-06T13:52:59.649Z,1.20
2019-01-06T13:56:02.357Z,1.10
2019-01-06T13:59:02.103Z,1.10
2019-01-06T14:01:58.621Z,1.30
2019-01-06T14:04:54.830Z,1.27
2019-01-06T14:07:40.997Z,1.30
2019-01-06T14:10:36.744Z,1.50
2019-01-06T14:13:36.043Z,1.92
2019-01-06T14:16:26.667Z,1.52
2019-01-06T14:19:21.117Z,1.70
2019-01-06T14:22:17.770Z,1.30
2019-01-06T14:24:58.404Z,1.92
2019-01-06T14:27:44.647Z,1.75
2019-01-06T14:30:24.167Z,1.50
2019-01-06T14:33:10.225Z,1.62
2019-01-06T14:35:52.041Z,1.82
2019-01-06T14:42:06.680Z,1.80
2019-01-06T14:45:13.523Z,2.12
2019-01-06T14:48:13.660Z,2.15
2019-01-06T14:51:20.588Z,2.30
2019-01-06T14:54:20.640Z,2.10
2019-01-06T14:57:12.667Z,2.75
2019-01-06T15:00:19.571Z,2.58
2019-01-06T15:03:19.795Z,2.58
2019-01-06T15:06:26.762Z,2.50
2019-01-06T15:09:30.466Z,2.60
2019-01-06T15:12:30.501Z,3.15
2019-01-06T15:15:37.517Z,3.27
2019-01-06T15:18:38.284Z,2.95
2019-01-06T15:21:45.500Z,2.60
2019-01-06T15:24:45.825Z,2.92
2019-01-06T15:27:46.020Z,3.75
2019-01-06T15:30:52.841Z,3.35
2019-01-06T15:33:52.764Z,3.08
2019-01-06T15:36:59.889Z,3.25
2019-01-06T15:40:01.308Z,4.10
2019-01-06T15:43:01.613Z,3.83
2019-01-06T15:46:08.430Z,4.22
2019-01-06T15:49:08.304Z,4.17
2019-01-06T15:52:12.623Z,4.00
2019-01-06T15:55:12.710Z,4.40
2019-01-06T15:58:12.901Z,4.55
2019-01-06T16:01:19.700Z,4.45
2019-01-06T16:04:19.601Z,4.92
2019-01-06T16:07:26.572Z,4.55
2019-01-06T16:10:26.379Z,4.55
2019-01-06T16:13:26.671Z,4.53
2019-01-06T16:16:33.875Z,4.60
2019-01-06T16:19:34.257Z,4.80
2019-01-06T16:22:36.976Z,5.08
2019-01-06T16:25:43.109Z,4.95
2019-01-06T16:28:43.228Z,5.08
2019-01-06T16:31:49.947Z,4.50
2019-01-06T16:34:49.631Z,5.08
2019-01-06T16:37:56.525Z,5.17
2019-01-06T16:40:56.283Z,5.42
2019-01-06T16:43:44.894Z,5.83
2019-01-06T16:46:51.696Z,5.50
2019-01-06T16:49:51.649Z,5.60
2019-01-06T16:52:47.725Z,5.80
2019-01-06T16:55:54.658Z,5.80
2019-01-06T16:58:57.196Z,5.92
2019-01-06T17:02:04.079Z,7.47
2019-01-06T17:05:04.144Z,7.37
2019-01-06T17:08:11.389Z,7.35
2019-01-06T17:11:12.095Z,7.28
2019-01-06T17:14:19.317Z,7.87
2019-01-06T17:17:15.690Z,7.47
2019-01-06T17:20:23.295Z,7.20
2019-01-06T17:23:24.065Z,6.65
2019-01-06T17:26:23.951Z,8.40
2019-01-06T17:29:24.315Z,7.30
2019-01-06T17:32:31.219Z,7.00
2019-01-06T17:35:30.980Z,6.85
2019-01-06T17:38:38.092Z,7.33
2019-01-06T17:41:35.924Z,8.08
2019-01-06T17:44:35.436Z,8.00
2019-01-06T17:47:36.575Z,7.40
2019-01-06T17:50:31.741Z,8.43
2019-01-06T17:53:45.460Z,10.20
2019-01-06T17:56:39.417Z,9.75
2019-01-06T17:59:40.004Z,10.03
2019-01-06T18:02:47.954Z,9.65
2019-01-06T18:05:47.850Z,10.05
2019-01-06T18:08:54.704Z,10.25
2019-01-06T18:11:53.918Z,10.48
2019-01-06T18:14:54.099Z,11.78
2019-01-06T18:18:02.010Z,11.45
2019-01-06T18:21:02.409Z,11.05
2019-01-06T18:24:10.040Z,11.20
2019-01-06T18:27:10.614Z,9.60
2019-01-06T18:30:17.625Z,10.38
2019-01-06T18:33:17.833Z,10.82
2019-01-06T18:36:18.105Z,10.50
2019-01-06T18:39:21.080Z,10.35
2019-01-06T18:42:28.032Z,12.47
2019-01-06T18:45:28.268Z,11.53
2019-01-06T18:48:26.263Z,9.98
2019-01-06T18:51:33.071Z,9.63
2019-01-06T18:54:32.883Z,9.73
2019-01-06T18:57:39.935Z,9.50
2019-01-06T19:00:34.699Z,9.25
2019-01-06T19:03:37.567Z,9.63
2019-01-06T19:06:44.470Z,9.13
2019-01-06T19:09:43.625Z,9.45
2019-01-06T19:12:50.482Z,9.95
2019-01-06T19:15:51.049Z,10.90
2019-01-06T19:18:51.505Z,9.35
2019-01-06T19:21:58.490Z,10.98
2019-01-06T19:25:02.139Z,9.98
2019-01-06T19:28:09.005Z,9.85
2019-01-06T19:31:09.404Z,9.25
2019-01-06T19:34:09.341Z,9.75
2019-01-06T19:37:09.622Z,9.75
2019-01-06T19:40:16.728Z,10.20
2019-01-06T19:43:11.674Z,9.43
2019-01-06T19:46:18.918Z,9.88
2019-01-06T19:49:27.681Z,9.03
2019-01-06T19:52:28.066Z,9.98
2019-01-06T19:55:34.973Z,11.40
2019-01-06T19:58:37.672Z,10.05
2019-01-06T20:01:44.586Z,9.38
2019-01-06T20:04:54.523Z,8.98
2019-01-06T20:08:01.429Z,9.30
2019-01-06T20:11:02.039Z,10.63
2019-01-06T20:14:08.908Z,9.33
2019-01-06T20:17:17.113Z,10.70
2019-01-06T20:20:30.511Z,18.90
2019-01-06T20:23:31.050Z,9.98
2019-01-06T20:26:38.002Z,9.43
2019-01-06T20:29:40.846Z,10.98
2019-01-06T20:32:47.789Z,11.85
2019-01-06T20:35:48.031Z,9.55
2019-01-06T20:38:55.519Z,11.83
2019-01-06T20:41:58.811Z,11.68
2019-01-06T20:45:04.400Z,16.73
2019-01-06T20:47:58.142Z,10.30
2019-01-06T20:51:04.892Z,9.73
2019-01-06T20:54:05.107Z,10.63
2019-01-06T20:57:12.060Z,12.45
2019-01-06T21:00:11.849Z,10.03
2019-01-06T21:03:18.853Z,10.75
2019-01-06T21:06:23.000Z,10.93
2019-01-06T21:12:45.432Z,9.73
2019-01-06T21:15:52.386Z,9.03
2019-01-06T21:18:52.902Z,9.00
2019-01-06T21:22:00.020Z,8.80
2019-01-06T21:25:00.538Z,8.70
2019-01-06T21:28:07.982Z,9.43
2019-01-06T21:31:07.893Z,8.53
2019-01-06T21:34:14.842Z,8.25
2019-01-06T21:37:09.440Z,8.88
2019-01-06T21:40:16.267Z,8.08
2019-01-06T21:43:16.070Z,8.35
2019-01-06T21:46:23.142Z,8.93
2019-01-06T21:49:24.784Z,8.15
2019-01-06T21:55:58.773Z,7.67
2019-01-06T21:59:18.322Z,10.13
2019-01-06T22:02:23.719Z,10.15
2019-01-06T22:05:06.090Z,9.50
2019-01-06T22:07:59.307Z,9.03
2019-01-06T22:10:46.569Z,9.25
2019-01-06T22:13:32.852Z,9.90
2019-01-06T22:16:35.371Z,7.70
2019-01-06T22:19:21.694Z,9.03
2019-01-06T22:22:12.293Z,8.18
2019-01-06T22:25:08.692Z,6.75
2019-01-06T22:27:51.464Z,5.20
2019-01-06T22:30:37.420Z,5.22
2019-01-06T22:33:21.424Z,9.10
2019-01-06T22:36:07.150Z,7.87
2019-01-06T22:39:12.688Z,5.92
2019-01-06T22:41:58.661Z,6.17
2019-01-06T22:44:44.640Z,7.08
2019-01-06T22:47:34.829Z,8.48
2019-01-06T22:50:34.454Z,8.88
2019-01-06T22:53:29.207Z,9.43
2019-01-06T22:56:14.010Z,8.53
2019-01-06T22:59:00.285Z,8.45
2019-01-06T23:01:47.749Z,7.85
2019-01-06T23:04:23.447Z,7.22
2019-01-06T23:07:09.487Z,6.75
2019-01-06T23:09:52.901Z,7.03
2019-01-06T23:12:46.674Z,7.65
2019-01-06T23:15:34.613Z,7.35
2019-01-06T23:18:20.270Z,6.90
2019-01-06T23:21:05.041Z,7.05
2019-01-06T23:23:50.676Z,6.08
2019-01-06T23:26:50.440Z,6.42
2019-01-06T23:29:37.224Z,5.30
2019-01-06T23:32:40.153Z,3.60
2019-01-06T23:35:36.617Z,3.45
2019-01-06T23:38:23.097Z,2.77
2019-01-06T23:41:09.512Z,3.05
2019-01-06T23:44:03.666Z,4.03
2019-01-06T23:46:50.315Z,3.90
2019-01-06T23:49:28.648Z,4.05
2019-01-06T23:52:15.408Z,3.75
2019-01-06T23:55:01.385Z,3.65
2019-01-06T23:57:43.427Z,3.20
